Time;durP1;ratioP1;P1;durP2;ratioP2;P2;SDS_P1;SDS_P2;PMS_P1;PMS_P2;Temp;Humidity;BMP_temperature;BMP_pressure;BME280_temperature;BME280_humidity;BME280_pressure;Samples;Min_cycle;Max_cycle;Signal;HPM_P1;HPM_P2
2024/01/19 00:00:13;;;;;;;18.67;11.83;;;;;;;-1.76;100.00;101342.53;5044263;28;20573;-66
2024/01/19 00:02:38;;;;;;;17.30;11.80;;;;;;;-1.76;100.00;101347.75;5037027;28;20033;-66
2024/01/19 00:05:04;;;;;;;22.57;12.77;;;;;;;-1.75;100.00;101354.63;5040378;28;20107;-66
2024/01/19 00:07:30;;;;;;;18.60;12.30;;;;;;;-1.72;100.00;101354.50;5038829;28;20514;-66
2024/01/19 00:09:55;;;;;;;19.00;11.73;;;;;;;-1.75;100.00;101352.03;5048098;28;20032;-66
2024/01/19 00:12:21;;;;;;;20.83;12.10;;;;;;;-1.77;100.00;101345.22;5037195;28;20044;-66
2024/01/19 00:14:46;;;;;;;19.83;12.23;;;;;;;-1.77;100.00;101343.44;5038489;28;20048;-66
2024/01/19 00:17:11;;;;;;;17.03;11.80;;;;;;;-1.77;100.00;101350.41;5042703;28;20032;-66
2024/01/19 00:19:37;;;;;;;17.20;11.30;;;;;;;-1.81;100.00;101351.50;5047271;28;20021;-66
2024/01/19 00:22:02;;;;;;;19.07;12.00;;;;;;;-1.83;100.00;101355.94;5045081;28;20021;-66
2024/01/19 00:24:28;;;;;;;19.13;12.47;;;;;;;-1.82;100.00;101357.63;5051237;28;20596;-66
2024/01/19 00:26:54;;;;;;;19.63;12.97;;;;;;;-1.80;100.00;101371.41;5041026;28;20031;-66
2024/01/19 00:29:20;;;;;;;20.03;12.70;;;;;;;-1.81;100.00;101372.31;5045474;28;20029;-66
2024/01/19 00:31:47;;;;;;;15.33;11.73;;;;;;;-1.90;100.00;101369.28;5041680;28;20029;-66
2024/01/19 00:34:13;;;;;;;18.90;11.80;;;;;;;-1.93;100.00;101379.84;5050399;28;20020;-66
2024/01/19 00:36:39;;;;;;;16.23;11.53;;;;;;;-2.05;100.00;101390.00;5045295;28;20050;-66
2024/01/19 00:39:04;;;;;;;14.93;10.90;;;;;;;-2.20;100.00;101389.03;5052286;28;20528;-66
2024/01/19 00:41:30;;;;;;;17.97;11.70;;;;;;;-2.28;100.00;101396.38;5032044;28;20509;-65
2024/01/19 00:43:55;;;;;;;17.40;10.90;;;;;;;-2.38;100.00;101390.75;5040030;28;20403;-66
2024/01/19 00:46:21;;;;;;;17.60;11.13;;;;;;;-2.32;100.00;101408.66;5043896;28;20717;-66
2024/01/19 00:48:47;;;;;;;16.30;11.50;;;;;;;-2.27;100.00;101406.72;5040490;28;20029;-66
2024/01/19 00:51:12;;;;;;;18.07;11.53;;;;;;;-2.23;100.00;101400.44;5042501;28;20052;-66
2024/01/19 00:53:37;;;;;;;18.10;11.43;;;;;;;-2.14;100.00;101408.69;5040418;28;20021;-66
2024/01/19 00:56:03;;;;;;;17.53;11.23;;;;;;;-2.09;100.00;101404.09;5033571;28;20124;-66
2024/01/19 00:58:29;;;;;;;15.83;11.13;;;;;;;-2.04;100.00;101402.09;5035506;28;20426;-66
2024/01/19 01:00:56;;;;;;;18.33;11.23;;;;;;;-2.03;100.00;101390.78;5045936;28;20063;-66
2024/01/19 01:03:28;;;;;;;17.00;11.37;;;;;;;-2.02;100.00;101393.34;5043377;28;20179;-65
2024/01/19 01:05:59;;;;;;;18.77;11.10;;;;;;;-2.00;100.00;101390.66;5044628;28;20040;-66
2024/01/19 01:08:25;;;;;;;18.90;11.17;;;;;;;-1.97;100.00;101386.13;5044898;28;20029;-66
2024/01/19 01:10:51;;;;;;;15.73;11.30;;;;;;;-1.92;100.00;101378.94;5039664;28;20037;-66
2024/01/19 01:13:17;;;;;;;18.63;11.53;;;;;;;-1.81;100.00;101412.22;5048186;28;20033;-66
2024/01/19 01:15:42;;;;;;;18.83;11.23;;;;;;;-1.80;100.00;101410.44;5039508;28;20052;-66
2024/01/19 01:18:07;;;;;;;19.83;10.97;;;;;;;-1.84;100.00;101411.53;5043333;28;20087;-66
2024/01/19 01:20:33;;;;;;;13.97;10.23;;;;;;;-1.88;100.00;101392.63;5039164;28;20461;-66
2024/01/19 01:22:58;;;;;;;14.23;10.07;;;;;;;-1.84;100.00;101394.16;5041833;28;20029;-66
2024/01/19 01:25:23;;;;;;;16.10;10.00;;;;;;;-1.81;100.00;101390.53;5041052;28;20056;-66
2024/01/19 01:27:49;;;;;;;14.70;9.93;;;;;;;-1.75;100.00;101396.28;5033537;28;20033;-66
2024/01/19 01:30:14;;;;;;;19.07;9.97;;;;;;;-1.70;100.00;101402.13;5046595;28;20105;-66
2024/01/19 01:32:39;;;;;;;16.00;9.77;;;;;;;-1.66;100.00;101400.19;5042905;28;20033;-66
2024/01/19 01:35:05;;;;;;;13.77;9.30;;;;;;;-1.64;100.00;101404.41;5047777;28;20020;-66
2024/01/19 01:37:30;;;;;;;17.23;9.57;;;;;;;-1.67;100.00;101394.16;5044044;28;20104;-63
2024/01/19 01:39:56;;;;;;;15.17;9.53;;;;;;;-1.63;100.00;101400.03;5043046;28;20034;-64
2024/01/19 01:42:21;;;;;;;16.27;9.93;;;;;;;-1.67;100.00;101401.97;5047758;28;20025;-63
2024/01/19 01:44:47;;;;;;;14.80;9.33;;;;;;;-1.70;100.00;101399.50;5042927;28;20025;-63
2024/01/19 01:47:12;;;;;;;14.60;9.43;;;;;;;-1.69;100.00;101410.78;5041668;28;20122;-64
2024/01/19 01:49:38;;;;;;;11.87;9.17;;;;;;;-1.72;100.00;101403.97;5044676;28;20029;-63
2024/01/19 01:52:04;;;;;;;15.90;8.77;;;;;;;-1.69;100.00;101410.78;5046716;28;20483;-63
2024/01/19 01:54:29;;;;;;;17.00;9.80;;;;;;;-1.71;100.00;101412.63;5053385;28;20035;-63
2024/01/19 01:56:56;;;;;;;18.33;9.30;;;;;;;-1.73;100.00;101420.50;5041365;28;20131;-63
2024/01/19 01:59:22;;;;;;;16.70;8.63;;;;;;;-1.76;100.00;101415.41;5035983;28;20162;-63
2024/01/19 02:01:48;;;;;;;12.17;8.40;;;;;;;-1.84;100.00;101417.56;5041144;28;20104;-63
2024/01/19 02:04:14;;;;;;;13.80;8.77;;;;;;;-1.85;100.00;101430.66;5052689;28;20153;-63
2024/01/19 02:06:39;;;;;;;16.50;9.40;;;;;;;-1.90;100.00;101426.53;5042541;28;20029;-63
2024/01/19 02:09:07;;;;;;;17.67;9.13;;;;;;;-1.92;100.00;101440.56;5036484;28;20054;-63
2024/01/19 02:11:32;;;;;;;14.23;8.77;;;;;;;-1.97;100.00;101437.34;5051877;28;20033;-63
2024/01/19 02:13:58;;;;;;;15.80;9.00;;;;;;;-1.98;100.00;101448.66;5042158;28;20441;-63
2024/01/19 02:16:23;;;;;;;14.57;8.90;;;;;;;-2.00;100.00;101447.91;5040752;28;20691;-63
2024/01/19 02:18:48;;;;;;;18.27;9.30;;;;;;;-2.02;100.00;101452.34;5050057;28;20578;-64
2024/01/19 02:21:14;;;;;;;14.30;8.70;;;;;;;-2.03;100.00;101455.84;5039600;28;20025;-64
2024/01/19 02:23:53;;;;;;;14.40;8.80;;;;;;;-2.08;100.00;101461.28;5038274;28;20457;-64
2024/01/19 02:26:20;;;;;;;13.57;8.37;;;;;;;-2.11;100.00;101457.97;5039237;28;20033;-63
2024/01/19 02:28:45;;;;;;;17.33;8.23;;;;;;;-2.13;100.00;101462.41;5043534;28;20029;-63
2024/01/19 02:31:10;;;;;;;16.43;8.63;;;;;;;-2.14;100.00;101468.53;5033832;28;20033;-64
2024/01/19 02:33:36;;;;;;;11.67;8.10;;;;;;;-2.15;100.00;101464.25;5040426;28;20029;-66
2024/01/19 02:36:01;;;;;;;15.30;7.63;;;;;;;-2.16;100.00;101467.75;5040859;28;20099;-66
2024/01/19 02:38:26;;;;;;;11.80;8.07;;;;;;;-2.16;100.00;101467.75;5054417;28;20036;-66
2024/01/19 02:40:52;;;;;;;11.17;7.70;;;;;;;-2.13;100.00;101473.66;5042532;28;20036;-66
2024/01/19 02:43:17;;;;;;;14.90;8.20;;;;;;;-2.14;100.00;101477.19;5042493;28;20043;-66
2024/01/19 02:45:42;;;;;;;14.83;8.30;;;;;;;-2.13;100.00;101478.88;5038987;28;20026;-66
2024/01/19 02:48:09;;;;;;;13.27;7.47;;;;;;;-2.11;100.00;101478.78;5046057;28;20032;-66
2024/01/19 02:50:34;;;;;;;14.20;7.53;;;;;;;-2.10;100.00;101480.47;5042673;28;20354;-66
2024/01/19 02:53:00;;;;;;;11.47;7.20;;;;;;;-2.08;100.00;101489.03;5038731;28;20526;-66
2024/01/19 02:55:25;;;;;;;11.70;7.37;;;;;;;-2.03;100.00;101487.91;5047045;28;20082;-66
2024/01/19 02:57:50;;;;;;;14.27;7.73;;;;;;;-2.01;100.00;101493.06;5044487;28;20028;-66
2024/01/19 03:00:16;;;;;;;14.13;7.27;;;;;;;-2.00;100.00;101494.75;5044732;28;20031;-66
2024/01/19 03:02:41;;;;;;;12.40;7.50;;;;;;;-2.01;100.00;101491.31;5040797;28;20406;-66
2024/01/19 03:05:06;;;;;;;14.60;7.37;;;;;;;-1.96;100.00;101501.47;5043691;28;20025;-66
2024/01/19 03:07:31;;;;;;;12.07;6.93;;;;;;;-1.96;100.00;101496.28;5046215;28;20724;-66
2024/01/19 03:09:57;;;;;;;12.23;7.13;;;;;;;-1.95;100.00;101495.38;5041945;28;20035;-66
2024/01/19 03:12:22;;;;;;;13.57;7.33;;;;;;;-1.97;100.00;101499.81;5041838;28;20035;-66
2024/01/19 03:14:47;;;;;;;14.97;6.97;;;;;;;-1.99;100.00;101499.03;5039319;28;20017;-66
2024/01/19 03:17:13;;;;;;;13.60;7.60;;;;;;;-2.03;100.00;101506.13;5042728;28;20025;-66
2024/01/19 03:19:39;;;;;;;11.73;6.83;;;;;;;-2.02;100.00;101500.03;5047508;28;20033;-66
2024/01/19 03:22:04;;;;;;;9.97;6.80;;;;;;;-2.01;100.00;101503.47;5041489;28;20033;-66
2024/01/19 03:24:29;;;;;;;13.00;7.17;;;;;;;-1.97;100.00;101503.25;5040928;28;20030;-66
2024/01/19 03:26:55;;;;;;;14.43;7.27;;;;;;;-1.94;100.00;101503.09;5042342;28;20021;-66
2024/01/19 03:29:22;;;;;;;19.13;8.07;;;;;;;-1.88;100.00;101507.16;5040635;28;20028;-66
2024/01/19 03:31:48;;;;;;;13.57;7.83;;;;;;;-1.82;100.00;101508.59;5047865;28;20028;-66
2024/01/19 03:34:13;;;;;;;17.97;8.53;;;;;;;-1.81;100.00;101500.72;5041210;28;20051;-66
2024/01/19 03:36:38;;;;;;;15.50;8.77;;;;;;;-1.78;100.00;101505.78;5034964;28;20082;-66
2024/01/19 03:39:04;;;;;;;12.20;8.53;;;;;;;-1.76;100.00;101506.53;5039604;28;20393;-66
2024/01/19 03:41:30;;;;;;;16.43;8.57;;;;;;;-1.76;100.00;101508.31;5048019;28;20119;-66
2024/01/19 03:43:55;;;;;;;19.17;9.60;;;;;;;-1.74;100.00;101507.31;5045762;28;20831;-66
2024/01/19 03:46:20;;;;;;;15.97;9.67;;;;;;;-1.69;100.00;101513.16;5037829;28;20033;-66
2024/01/19 03:48:46;;;;;;;18.97;10.63;;;;;;;-1.67;100.00;101513.91;5037573;28;20032;-66
2024/01/19 03:51:11;;;;;;;18.77;10.57;;;;;;;-1.66;100.00;101513.00;5040990;28;20028;-66
2024/01/19 03:53:36;;;;;;;18.57;10.43;;;;;;;-1.64;100.00;101518.97;5044195;28;20017;-66
2024/01/19 03:56:02;;;;;;;18.67;11.30;;;;;;;-1.62;100.00;101522.34;5046077;28;20013;-66
2024/01/19 03:58:27;;;;;;;15.73;10.77;;;;;;;-1.63;100.00;101518.06;5041256;28;20025;-66
2024/01/19 04:00:52;;;;;;;16.27;11.00;;;;;;;-1.62;100.00;101516.28;5051692;28;20119;-66
2024/01/19 04:03:19;;;;;;;14.73;10.47;;;;;;;-1.62;100.00;101516.28;5039496;28;20040;-66
2024/01/19 04:05:45;;;;;;;19.87;11.43;;;;;;;-1.62;100.00;101521.50;5052470;28;20024;-66
2024/01/19 04:08:11;;;;;;;20.37;11.20;;;;;;;-1.65;100.00;101519.91;5046987;28;20024;-66
2024/01/19 04:10:36;;;;;;;22.43;11.90;;;;;;;-1.64;100.00;101520.75;5047752;28;20110;-66
2024/01/19 04:13:01;;;;;;;18.47;12.43;;;;;;;-1.64;100.00;101524.19;5041399;28;20028;-66
2024/01/19 04:15:27;;;;;;;17.13;11.83;;;;;;;-1.65;100.00;101527.72;5043209;28;20020;-66
2024/01/19 04:17:52;;;;;;;22.27;12.40;;;;;;;-1.68;100.00;101538.28;5041649;28;20100;-66
2024/01/19 04:20:17;;;;;;;17.23;12.23;;;;;;;-1.71;100.00;101538.44;5041437;28;20017;-66
2024/01/19 04:22:43;;;;;;;17.43;11.93;;;;;;;-1.72;100.00;101547.16;5039760;28;20025;-66
2024/01/19 04:25:08;;;;;;;19.40;12.97;;;;;;;-1.73;100.00;101536.81;5044354;28;20463;-66
2024/01/19 04:27:33;;;;;;;20.33;12.23;;;;;;;-1.75;100.00;101549.88;5043253;28;20542;-66
2024/01/19 04:29:59;;;;;;;22.73;13.30;;;;;;;-1.77;100.00;101545.66;5042232;28;20039;-66
2024/01/19 04:32:24;;;;;;;21.27;13.03;;;;;;;-1.78;100.00;101543.97;5040063;28;20028;-66
2024/01/19 04:34:49;;;;;;;19.03;13.53;;;;;;;-1.81;100.00;101551.94;5037187;28;20025;-66
2024/01/19 04:37:15;;;;;;;18.33;13.80;;;;;;;-1.81;100.00;101563.19;5046144;28;20020;-66
2024/01/19 04:39:40;;;;;;;19.37;12.40;;;;;;;-1.90;100.00;101558.44;5040368;28;20617;-66
2024/01/19 04:42:05;;;;;;;17.43;12.43;;;;;;;-2.00;100.00;101567.63;5044451;28;20063;-66
2024/01/19 04:44:31;;;;;;;25.80;13.70;;;;;;;-2.00;100.00;101565.00;5044556;28;20064;-66
2024/01/19 04:46:56;;;;;;;20.10;12.70;;;;;;;-2.02;100.00;101575.50;5051304;28;20053;-66
2024/01/19 04:49:21;;;;;;;20.70;13.77;;;;;;;-2.05;100.00;101577.38;5047282;28;20025;-66
2024/01/19 04:51:46;;;;;;;22.57;13.57;;;;;;;-2.05;100.00;101577.38;5044186;28;20037;-65
2024/01/19 04:54:12;;;;;;;21.87;13.60;;;;;;;-2.06;100.00;101580.88;5041771;28;20139;-66
2024/01/19 04:56:37;;;;;;;22.87;13.53;;;;;;;-2.09;100.00;101586.25;5043702;28;20056;-65
2024/01/19 04:59:02;;;;;;;23.20;13.23;;;;;;;-2.14;100.00;101572.59;5042986;28;20136;-66
2024/01/19 05:01:28;;;;;;;21.30;13.33;;;;;;;-2.14;100.00;101573.44;5044703;28;20111;-66
2024/01/19 05:03:53;;;;;;;24.67;14.30;;;;;;;-2.05;100.00;101585.19;5038384;28;20033;-66
2024/01/19 05:06:19;;;;;;;25.10;14.10;;;;;;;-2.08;100.00;101580.13;5042347;28;20033;-66
2024/01/19 05:08:44;;;;;;;26.60;13.40;;;;;;;-2.09;100.00;101584.47;5042606;28;20600;-66
2024/01/19 05:11:13;;;;;;;24.50;13.53;;;;;;;-2.11;100.00;101595.88;5043337;28;20035;-66
2024/01/19 05:13:41;;;;;;;20.67;13.90;;;;;;;-2.09;100.00;101597.50;5042460;28;20414;-66
2024/01/19 05:16:08;;;;;;;23.23;14.27;;;;;;;-2.11;100.00;101594.13;5041027;28;20025;-66
2024/01/19 05:18:33;;;;;;;24.60;13.27;;;;;;;-2.12;100.00;101600.25;5044465;28;20783;-66
2024/01/19 05:20:58;;;;;;;18.47;13.20;;;;;;;-2.14;100.00;101609.88;5043308;28;20017;-66
2024/01/19 05:23:24;;;;;;;19.37;13.70;;;;;;;-2.17;100.00;101609.19;5039082;28;20036;-66
2024/01/19 05:25:49;;;;;;;24.77;12.70;;;;;;;-2.20;100.00;101615.38;5046793;28;20089;-66
2024/01/19 05:28:15;;;;;;;21.33;13.40;;;;;;;-2.22;100.00;101627.59;5045391;28;20044;-66
2024/01/19 05:30:40;;;;;;;18.33;12.47;;;;;;;-2.26;100.00;101629.50;5037956;28;20056;-66
2024/01/19 05:33:06;;;;;;;18.43;12.30;;;;;;;-2.28;100.00;101635.69;5033024;28;20033;-66
2024/01/19 05:35:31;;;;;;;23.97;13.43;;;;;;;-2.29;100.00;101634.84;5048274;28;20024;-66
2024/01/19 05:37:57;;;;;;;22.27;12.77;;;;;;;-2.28;100.00;101646.94;5042473;28;20028;-66
2024/01/19 05:40:22;;;;;;;22.03;12.77;;;;;;;-2.28;100.00;101654.75;5049155;28;20028;-66
2024/01/19 05:42:47;;;;;;;19.70;13.33;;;;;;;-2.26;100.00;101665.06;5041539;28;20629;-66
2024/01/19 05:45:13;;;;;;;22.37;12.90;;;;;;;-2.23;100.00;101676.19;5040496;28;20024;-66
2024/01/19 05:47:40;;;;;;;24.03;13.23;;;;;;;-2.20;100.00;101691.66;5048383;28;20052;-66
2024/01/19 05:50:06;;;;;;;20.80;12.83;;;;;;;-2.12;100.00;101700.88;5037383;28;20056;-66
2024/01/19 05:52:31;;;;;;;22.73;13.03;;;;;;;-2.06;100.00;101708.41;5039740;28;20367;-66
2024/01/19 05:54:56;;;;;;;22.53;13.27;;;;;;;-2.01;100.00;101704.69;5044338;28;20057;-66
2024/01/19 05:57:22;;;;;;;23.07;13.10;;;;;;;-1.95;100.00;101711.38;5044049;28;20055;-66
2024/01/19 05:59:47;;;;;;;21.30;13.67;;;;;;;-1.90;100.00;101718.06;5046127;28;20447;-66
2024/01/19 06:02:13;;;;;;;22.97;13.27;;;;;;;-1.86;100.00;101708.34;5048489;28;20024;-66
2024/01/19 06:04:38;;;;;;;20.67;12.70;;;;;;;-1.82;100.00;101706.44;5038119;28;20029;-66
2024/01/19 06:07:04;;;;;;;24.27;12.70;;;;;;;-1.83;100.00;101715.19;5043330;28;20017;-66
2024/01/19 06:09:29;;;;;;;22.87;13.03;;;;;;;-1.85;100.00;101709.19;5045840;28;20573;-66
2024/01/19 06:11:55;;;;;;;20.07;12.17;;;;;;;-1.91;100.00;101715.53;5048739;28;20116;-66
2024/01/19 06:14:20;;;;;;;21.20;12.80;;;;;;;-1.96;100.00;101720.09;5033529;28;20060;-66
2024/01/19 06:16:45;;;;;;;18.70;12.70;;;;;;;-2.01;100.00;101717.72;5039177;28;20032;-66
2024/01/19 06:19:10;;;;;;;20.70;12.60;;;;;;;-2.03;100.00;101722.13;5047333;28;20028;-66
2024/01/19 06:21:36;;;;;;;21.20;12.63;;;;;;;-2.05;100.00;101723.94;5036112;28;20124;-66
2024/01/19 06:24:01;;;;;;;20.40;12.77;;;;;;;-2.08;100.00;101718.03;5037095;28;20028;-66
2024/01/19 06:26:32;;;;;;;20.90;12.93;;;;;;;-2.07;100.00;101727.53;5032982;28;20037;-66
2024/01/19 06:28:58;;;;;;;19.47;12.53;;;;;;;-2.06;100.00;101734.41;5041733;28;20102;-66
2024/01/19 06:31:23;;;;;;;25.17;13.90;;;;;;;-2.07;100.00;101733.56;5041658;28;20092;-66
2024/01/19 06:33:48;;;;;;;21.70;13.37;;;;;;;-2.09;100.00;101738.00;5043021;28;20029;-66
2024/01/19 06:36:14;;;;;;;21.53;13.00;;;;;;;-2.10;100.00;101743.28;5036519;28;20859;-66
2024/01/19 06:38:39;;;;;;;19.47;13.40;;;;;;;-2.15;100.00;101750.44;5046180;28;20028;-66
2024/01/19 06:41:04;;;;;;;16.93;13.03;;;;;;;-2.19;100.00;101750.59;5038714;28;20028;-66
2024/01/19 06:43:30;;;;;;;20.67;13.33;;;;;;;-2.21;100.00;101756.78;5040834;28;20033;-66
2024/01/19 06:45:55;;;;;;;23.03;14.23;;;;;;;-2.22;100.00;101762.88;5046046;28;20029;-66
2024/01/19 06:48:21;;;;;;;19.17;13.17;;;;;;;-2.23;100.00;101761.19;5042621;28;20029;-66
2024/01/19 06:50:46;;;;;;;24.27;14.00;;;;;;;-2.26;100.00;101758.72;5036798;28;20031;-66
2024/01/19 06:53:12;;;;;;;20.07;13.70;;;;;;;-2.27;100.00;101757.88;5044058;28;20035;-66
2024/01/19 06:55:37;;;;;;;23.77;13.73;;;;;;;-2.29;100.00;101770.13;5040322;28;20016;-65
2024/01/19 06:58:03;;;;;;;28.57;14.87;;;;;;;-2.29;100.00;101769.25;5042345;28;20079;-66
2024/01/19 07:00:28;;;;;;;20.63;14.17;;;;;;;-2.32;100.00;101782.38;5036671;28;20446;-66
2024/01/19 07:02:54;;;;;;;20.67;14.43;;;;;;;-2.34;100.00;101782.44;5038148;28;20556;-66
2024/01/19 07:05:19;;;;;;;20.37;14.17;;;;;;;-2.41;100.00;101782.78;5037041;28;20036;-66
2024/01/19 07:07:45;;;;;;;26.30;13.97;;;;;;;-2.54;100.00;101800.66;5030444;28;20055;-66
2024/01/19 07:10:10;;;;;;;20.67;12.67;;;;;;;-2.66;100.00;101806.34;5041035;28;20033;-66
2024/01/19 07:12:35;;;;;;;23.13;12.97;;;;;;;-2.74;100.00;101816.22;5040046;28;20608;-66
2024/01/19 07:15:01;;;;;;;18.07;13.97;;;;;;;-2.74;100.00;101811.00;5040560;28;20082;-66
2024/01/19 07:17:26;;;;;;;22.07;14.40;;;;;;;-2.73;100.00;101815.28;5036705;28;20516;-66
2024/01/19 07:19:51;;;;;;;24.37;14.30;;;;;;;-2.69;100.00;101816.88;5037476;28;20037;-66
2024/01/19 07:22:17;;;;;;;29.00;16.27;;;;;;;-2.64;100.00;101820.13;5033253;28;20036;-66
2024/01/19 07:24:42;;;;;;;22.97;15.73;;;;;;;-2.61;100.00;101810.44;5035943;28;20077;-66
2024/01/19 07:27:07;;;;;;;24.00;16.27;;;;;;;-2.60;100.00;101816.50;5037238;28;20390;-66
2024/01/19 07:29:33;;;;;;;25.53;15.97;;;;;;;-2.61;100.00;101820.84;5039566;28;20109;-66
2024/01/19 07:31:58;;;;;;;24.47;16.13;;;;;;;-2.63;100.00;101821.81;5047260;28;20453;-66
2024/01/19 07:34:24;;;;;;;24.37;15.77;;;;;;;-2.65;100.00;101828.81;5038943;28;20017;-66
2024/01/19 07:36:49;;;;;;;23.10;15.33;;;;;;;-2.65;100.00;101834.88;5043132;28;20806;-66
2024/01/19 07:39:15;;;;;;;29.17;16.43;;;;;;;-2.67;100.00;101828.88;5037478;28;20053;-66
2024/01/19 07:41:40;;;;;;;24.67;14.77;;;;;;;-2.69;100.00;101828.09;5036718;28;20102;-66
2024/01/19 07:44:06;;;;;;;25.40;16.40;;;;;;;-2.69;100.00;101835.06;5035962;28;20067;-66
2024/01/19 07:46:32;;;;;;;28.03;15.77;;;;;;;-2.64;100.00;101846.13;5040068;28;20032;-66
2024/01/19 07:48:57;;;;;;;25.43;16.07;;;;;;;-2.62;100.00;101852.09;5040146;28;20029;-66
2024/01/19 07:51:24;;;;;;;25.50;16.97;;;;;;;-2.60;100.00;101847.72;5042945;28;20032;-66
2024/01/19 07:53:50;;;;;;;28.13;17.60;;;;;;;-2.60;100.00;101851.16;5037659;28;20025;-66
2024/01/19 07:56:15;;;;;;;27.77;17.40;;;;;;;-2.60;100.00;101851.16;5039580;28;20039;-66
2024/01/19 07:58:46;;;;;;;26.07;17.33;;;;;;;-2.57;100.00;101865.78;5041609;28;20037;-66
2024/01/19 08:01:12;;;;;;;26.80;15.93;;;;;;;-2.55;100.00;101867.41;5033857;28;20093;-66
2024/01/19 08:03:38;;;;;;;26.87;17.57;;;;;;;-2.54;100.00;101860.47;5042723;28;20033;-66
2024/01/19 08:06:04;;;;;;;24.53;16.43;;;;;;;-2.53;100.00;101862.16;5030768;28;20109;-66
2024/01/19 08:08:29;;;;;;;26.10;17.53;;;;;;;-2.50;100.00;101881.06;5039452;28;20029;-66
2024/01/19 08:10:55;;;;;;;30.27;16.70;;;;;;;-2.50;100.00;101875.88;5035290;28;20108;-66
2024/01/19 08:13:20;;;;;;;35.63;18.57;;;;;;;-2.51;100.00;101876.78;5035991;28;20726;-66
2024/01/19 08:15:45;;;;;;;34.73;18.63;;;;;;;-2.52;100.00;101882.03;5032508;28;20053;-66
2024/01/19 08:18:11;;;;;;;35.70;18.23;;;;;;;-2.53;100.00;101885.56;5041086;28;20051;-66
2024/01/19 08:20:36;;;;;;;32.67;17.93;;;;;;;-2.54;100.00;101889.91;5034135;28;20391;-66
2024/01/19 08:23:02;;;;;;;40.70;19.00;;;;;;;-2.53;100.00;101890.75;5042657;28;20021;-66
2024/01/19 08:25:27;;;;;;;31.30;18.37;;;;;;;-2.53;100.00;101898.56;5049031;28;20128;-66
2024/01/19 08:27:53;;;;;;;35.37;19.07;;;;;;;-2.51;100.00;101897.59;5039627;28;20104;-66
2024/01/19 08:30:19;;;;;;;38.03;19.53;;;;;;;-2.46;100.00;101901.75;5037468;28;20032;-66
2024/01/19 08:32:45;;;;;;;51.03;18.97;;;;;;;-2.46;100.00;101906.97;5040002;28;20033;-66
2024/01/19 08:35:11;;;;;;;41.13;19.30;;;;;;;-2.41;100.00;101913.66;5035339;28;20031;-66
2024/01/19 08:37:40;;;;;;;39.07;18.03;;;;;;;-2.37;100.00;101914.38;5032535;28;20487;-66
2024/01/19 08:40:07;;;;;;;38.83;18.70;;;;;;;-2.33;100.00;101914.19;5048200;28;20052;-66
2024/01/19 08:42:32;;;;;;;39.03;18.73;;;;;;;-2.30;100.00;101919.31;5051036;28;20596;-66
2024/01/19 08:44:58;;;;;;;45.00;18.77;;;;;;;-2.28;100.00;101914.03;5038190;28;20028;-66
2024/01/19 08:47:24;;;;;;;47.63;19.87;;;;;;;-2.28;100.00;101921.84;5051259;28;20024;-66
2024/01/19 08:49:49;;;;;;;41.13;19.73;;;;;;;-2.24;100.00;101924.25;5036722;28;20079;-66
2024/01/19 08:52:15;;;;;;;35.07;20.13;;;;;;;-2.23;100.00;101919.91;5046915;28;20024;-66
2024/01/19 08:54:40;;;;;;;34.27;20.27;;;;;;;-2.21;100.00;101928.47;5045321;28;20130;-66
2024/01/19 08:57:05;;;;;;;35.67;20.30;;;;;;;-2.19;100.00;101931.88;5043330;28;20025;-66
2024/01/19 08:59:32;;;;;;;35.40;19.03;;;;;;;-2.16;100.00;101933.50;5039296;28;20039;-66
2024/01/19 09:01:57;;;;;;;34.77;20.23;;;;;;;-2.12;100.00;101935.06;5048376;28;20085;-66
2024/01/19 09:04:23;;;;;;;36.43;21.13;;;;;;;-2.05;100.00;101952.09;5054056;28;20025;-66
2024/01/19 09:06:49;;;;;;;38.97;21.07;;;;;;;-1.98;100.00;101943.16;5037745;28;20021;-66
2024/01/19 09:09:14;;;;;;;34.00;20.80;;;;;;;-1.90;100.00;101946.28;5046025;28;20056;-66
2024/01/19 09:11:39;;;;;;;36.77;20.77;;;;;;;-1.77;100.00;101947.47;5045416;28;20166;-66
2024/01/19 09:14:07;;;;;;;38.40;21.27;;;;;;;-1.70;100.00;101951.53;5044648;28;20056;-66
2024/01/19 09:16:32;;;;;;;39.07;20.90;;;;;;;-1.57;100.00;101970.06;5044847;28;20040;-66
2024/01/19 09:18:57;;;;;;;33.27;20.40;;;;;;;-1.47;100.00;101967.91;5038001;28;20029;-63
2024/01/19 09:21:23;;;;;;;36.57;20.80;;;;;;;-1.39;100.00;101965.84;5043134;28;20029;-63
2024/01/19 09:23:48;;;;;;;31.13;20.67;;;;;;;-1.30;100.00;101965.44;5043075;28;20024;-64
2024/01/19 09:26:18;;;;;;;31.83;19.90;;;;;;;-1.20;100.00;101973.69;5052412;28;20102;-63
2024/01/19 09:28:44;;;;;;;32.60;19.13;;;;;;;-1.12;100.00;101972.44;5044796;28;20028;-64
2024/01/19 09:31:10;;;;;;;25.53;18.03;;;;;;;-1.05;100.00;101980.84;5042202;28;20577;-64
2024/01/19 09:33:35;;;;;;;30.03;18.53;;;;;;;-0.98;100.00;101983.09;5041053;28;20116;-64
2024/01/19 09:36:00;;;;;;;25.83;17.13;;;;;;;-0.92;100.00;101968.94;5034016;28;20031;-64
2024/01/19 09:38:25;;;;;;;24.53;16.97;;;;;;;-0.86;100.00;101973.06;5035609;28;20041;-64
2024/01/19 09:41:01;;;;;;;23.13;17.30;;;;;;;-0.77;100.00;101988.28;5035271;28;20493;-63
2024/01/19 09:43:26;;;;;;;23.13;16.30;;;;;;;-0.71;100.00;101981.00;5041478;28;20612;-64
2024/01/19 09:45:54;;;;;;;25.77;16.20;;;;;;;-0.64;100.00;101982.41;5042926;28;20034;-64
2024/01/19 09:48:24;;;;;;;27.40;16.63;;;;;;;-0.58;100.00;101996.94;5040822;28;20129;-64
2024/01/19 09:50:53;;;;;;;21.17;14.53;;;;;;;-0.51;100.00;101995.75;5035609;28;20029;-64
2024/01/19 09:53:32;;;;;;;22.25;14.45;;;;;;;-0.44;100.00;101999.75;5039805;28;20043;-64
2024/01/19 09:55:59;;;;;;;20.70;14.45;;;;;;;-0.39;100.00;101995.16;5040918;28;20536;-64
2024/01/19 09:58:26;;;;;;;21.97;13.97;;;;;;;-0.29;100.00;102015.59;5047408;28;20097;-64
2024/01/19 10:00:52;;;;;;;30.50;14.20;;;;;;;-0.25;100.00;102009.34;5050067;28;20040;-64
2024/01/19 10:03:18;;;;;;;20.63;13.13;;;;;;;-0.18;100.00;102022.03;5046110;28;20036;-64
2024/01/19 10:05:44;;;;;;;19.87;13.87;;;;;;;-0.13;100.00;102022.66;5044775;28;20056;-64
2024/01/19 10:08:12;;;;;;;16.97;12.77;;;;;;;-0.08;100.00;102032.88;5030287;28;20494;-64
2024/01/19 10:10:42;;;;;;;23.20;13.07;;;;;;;-0.03;100.00;102030.88;5038360;28;20482;-63
2024/01/19 10:13:07;;;;;;;18.83;12.30;;;;;;;0.01;100.00;102032.47;5050698;28;20021;-64
2024/01/19 10:15:33;;;;;;;19.93;12.47;;;;;;;0.04;100.00;102027.09;5041109;28;20046;-64
2024/01/19 10:17:59;;;;;;;18.43;11.93;;;;;;;0.08;100.00;102028.63;5050237;28;20029;-64
2024/01/19 10:20:25;;;;;;;20.30;12.67;;;;;;;0.15;100.00;102027.41;5058890;28;20034;-64
2024/01/19 10:22:50;;;;;;;17.07;11.53;;;;;;;0.22;100.00;102028.78;5037363;28;20029;-64
2024/01/19 10:25:16;;;;;;;15.87;11.47;;;;;;;0.32;100.00;102030.97;5042850;28;20064;-64
2024/01/19 10:27:50;;;;;;;16.40;11.33;;;;;;;0.37;100.00;102034.19;5041813;28;20079;-64
2024/01/19 10:30:21;;;;;;;17.87;10.87;;;;;;;0.43;100.00;102037.34;5042918;28;20040;-64
2024/01/19 10:32:49;;;;;;;14.23;9.97;;;;;;;0.49;100.00;102034.41;5038860;28;20675;-64
2024/01/19 10:35:19;;;;;;;15.70;10.40;;;;;;;0.55;100.00;102039.34;5040813;28;20492;-64
2024/01/19 10:37:44;;;;;;;15.80;10.07;;;;;;;0.62;100.00;102034.66;5031134;28;20044;-64
2024/01/19 10:40:20;;;;;;;14.50;9.90;;;;;;;0.70;100.00;102042.13;5040765;28;20579;-64
2024/01/19 10:42:53;;;;;;;21.13;9.93;;;;;;;0.76;100.00;102045.25;5030974;28;20084;-64
2024/01/19 10:45:29;;;;;;;12.97;9.33;;;;;;;0.84;100.00;102042.25;5031319;28;20773;-64
2024/01/19 10:47:56;;;;;;;14.93;9.43;;;;;;;0.89;100.00;102038.50;5032405;28;20109;-64
2024/01/19 10:50:26;;;;;;;17.63;9.33;;;;;;;0.97;100.00;102047.72;5044674;28;20116;-64
2024/01/19 10:52:53;;;;;;;16.93;9.57;;;;;;;1.02;100.00;102051.78;5036774;28;20033;-64
2024/01/19 10:55:21;;;;;;;15.10;9.03;;;;;;;1.09;100.00;102045.28;5035156;28;20037;-67
2024/01/19 10:57:50;;;;;;;16.80;9.23;;;;;;;1.17;100.00;102050.16;5044324;28;20043;-67